Gulf — V2BB5 — position and weather

sailwx.info

Track history (hours):
 
Tides and Currents Weather Stations Pressure Air Temp Water Temp Dewpoint Dewpoint Depression Visibility Wind Speed Wind Dir Waves Ship Positions

Gulf

Last reported at 2016-Aug-26 21:33 UTC. Time now 2016-Aug-28 02:17 UTC.
Position N 37°28' E 012°17'.

Length 96 m; draft 3.9 m.

Type: Cargo ship. MMSI: 304320000.

Date/timePositionNaut miles runAvg speedWind from/ knotsBaromVisibWave heightAir tempDewpointWater temp
2016-Aug-26 21:33N 37°28' E 012°17'0 0.0
2016-Aug-26 20:21N 37°28' E 012°17'0 0.0
2016-Aug-26 18:21N 37°28' E 012°17'0 0.0
2016-Aug-26 17:33N 37°28' E 012°17'28 3.5
2016-Aug-26 09:33N 37°06' E 012°39'8 8.0
2016-Aug-26 08:33N 37°00' E 012°46'8 7.8
2016-Aug-26 07:34N 36°56' E 012°54'6 5.5
2016-Aug-26 06:33N 36°54' E 013°01'15 7.2
2016-Aug-26 04:32N 36°51' E 013°19'7 7.2
2016-Aug-26 03:34N 36°49' E 013°27'7 7.3
2016-Aug-26 02:34N 36°46' E 013°36'7 7.2
2016-Aug-26 01:34N 36°44' E 013°44'8 7.6
2016-Aug-26 00:34N 36°41' E 013°53'8 7.7
2016-Aug-25 23:34N 36°38' E 014°02'8 7.9
2016-Aug-25 22:34N 36°35' E 014°11'8 8.0
2016-Aug-25 21:34N 36°32' E 014°20'8 7.8
2016-Aug-25 20:34N 36°29' E 014°29'8 7.6
2016-Aug-25 19:34N 36°27' E 014°38'  
2016-Aug-20 18:31N 37°10' E 023°36'8 8.2
2016-Aug-20 17:33N 37°18' E 023°37'9 9.0
2016-Aug-20 16:33N 37°27' E 023°40'9 9.1
2016-Aug-20 15:33N 37°36' E 023°42'9 8.7
2016-Aug-20 14:33N 37°44' E 023°39'9 9.3
2016-Aug-20 13:33N 37°53' E 023°35'2 2.4
2016-Aug-20 12:32N 37°55' E 023°34'0 0.0
2016-Aug-20 11:32N 37°55' E 023°34'0 0.0
2016-Aug-20 10:32N 37°55' E 023°34'0 0.0
2016-Aug-20 09:32N 37°55' E 023°34'0 0.0
2016-Aug-20 08:32N 37°55' E 023°34'0 0.0
2016-Aug-20 07:32N 37°55' E 023°34'0 0.0
2016-Aug-20 06:32N 37°55' E 023°34'0 0.0
2016-Aug-20 05:32N 37°55' E 023°34'0 0.0
2016-Aug-20 04:32N 37°55' E 023°34'0 0.0
2016-Aug-20 03:29N 37°55' E 023°34'0 0.0
2016-Aug-20 02:29N 37°55' E 023°34'0 0.0
2016-Aug-20 01:32N 37°55' E 023°34'0 0.0
2016-Aug-20 00:32N 37°55' E 023°34'0 0.0
2016-Aug-19 23:32N 37°55' E 023°34'0 0.0
2016-Aug-19 22:32N 37°55' E 023°34'0 0.1
2016-Aug-19 21:32N 37°55' E 023°34'0 0.1
2016-Aug-19 20:32N 37°55' E 023°34'0 0.0
2016-Aug-19 19:32N 37°55' E 023°34'0 0.0
2016-Aug-19 18:32N 37°55' E 023°34'0 0.0
2016-Aug-19 17:32N 37°55' E 023°34'0 0.0
2016-Aug-19 16:32N 37°55' E 023°34'2 2.2
2016-Aug-19 15:34N 37°54' E 023°36'8 8.3
2016-Aug-19 14:33N 37°47' E 023°41'8 8.3
2016-Aug-19 13:33N 37°40' E 023°47'167 6.6
2016-Aug-18 12:23N 40°20' E 022°48'7 8.2
2016-Aug-18 11:32N 40°27' E 022°44'8 8.3
2016-Aug-18 10:33N 40°33' E 022°51'6 6.1
2016-Aug-18 09:33N 40°38' E 022°55'0 0.0
2016-Aug-18 08:28N 40°38' E 022°55'0 0.0
2016-Aug-18 07:28N 40°38' E 022°55'0 0.0
2016-Aug-18 06:13N 40°38' E 022°55'0 0.0
2016-Aug-17 09:22N 40°38' E 022°55'0 0.0
2016-Aug-17 08:33N 40°38' E 022°55'0 0.0
2016-Aug-17 07:33N 40°38' E 022°55'0 0.0
2016-Aug-17 06:33N 40°38' E 022°55'0 0.0
2016-Aug-17 04:27N 40°38' E 022°55'1 1.5
2016-Aug-17 03:33N 40°37' E 022°56'0 0.1
2016-Aug-17 02:27N 40°37' E 022°56'0 0.1
2016-Aug-17 01:27N 40°37' E 022°56'0 0.0
2016-Aug-17 00:27N 40°37' E 022°56'0 0.0
2016-Aug-16 23:30N 40°37' E 022°56'0 0.1
2016-Aug-16 22:30N 40°37' E 022°55'0 0.2
2016-Aug-16 21:33N 40°37' E 022°55'  
Track history (hours):
 
Tides and Currents Weather Stations Pressure Air Temp Water Temp Dewpoint Dewpoint Depression Visibility Wind Speed Wind Dir Waves Ship Positions

Gulf

Last reported at 2016-Aug-26 21:33 UTC. Time now 2016-Aug-28 02:17 UTC.
Position N 37°28' E 012°17'.

Length 96 m; draft 3.9 m.

Type: Cargo ship. MMSI: 304320000.

Date/timePositionNaut miles runAvg speedWind from/ knotsBaromVisibWave heightAir tempDewpointWater temp
2016-Aug-26 21:33N 37°28' E 012°17'0 0.0
2016-Aug-26 20:21N 37°28' E 012°17'0 0.0
2016-Aug-26 18:21N 37°28' E 012°17'0 0.0
2016-Aug-26 17:33N 37°28' E 012°17'28 3.5
2016-Aug-26 09:33N 37°06' E 012°39'8 8.0
2016-Aug-26 08:33N 37°00' E 012°46'8 7.8
2016-Aug-26 07:34N 36°56' E 012°54'6 5.5
2016-Aug-26 06:33N 36°54' E 013°01'15 7.2
2016-Aug-26 04:32N 36°51' E 013°19'7 7.2
2016-Aug-26 03:34N 36°49' E 013°27'7 7.3
2016-Aug-26 02:34N 36°46' E 013°36'7 7.2
2016-Aug-26 01:34N 36°44' E 013°44'8 7.6
2016-Aug-26 00:34N 36°41' E 013°53'8 7.7
2016-Aug-25 23:34N 36°38' E 014°02'8 7.9
2016-Aug-25 22:34N 36°35' E 014°11'8 8.0
2016-Aug-25 21:34N 36°32' E 014°20'8 7.8
2016-Aug-25 20:34N 36°29' E 014°29'8 7.6
2016-Aug-25 19:34N 36°27' E 014°38'  
2016-Aug-20 18:31N 37°10' E 023°36'8 8.2
2016-Aug-20 17:33N 37°18' E 023°37'9 9.0
2016-Aug-20 16:33N 37°27' E 023°40'9 9.1
2016-Aug-20 15:33N 37°36' E 023°42'9 8.7
2016-Aug-20 14:33N 37°44' E 023°39'9 9.3
2016-Aug-20 13:33N 37°53' E 023°35'2 2.4
2016-Aug-20 12:32N 37°55' E 023°34'0 0.0
2016-Aug-20 11:32N 37°55' E 023°34'0 0.0
2016-Aug-20 10:32N 37°55' E 023°34'0 0.0
2016-Aug-20 09:32N 37°55' E 023°34'0 0.0
2016-Aug-20 08:32N 37°55' E 023°34'0 0.0
2016-Aug-20 07:32N 37°55' E 023°34'0 0.0
2016-Aug-20 06:32N 37°55' E 023°34'0 0.0
2016-Aug-20 05:32N 37°55' E 023°34'0 0.0
2016-Aug-20 04:32N 37°55' E 023°34'0 0.0
2016-Aug-20 03:29N 37°55' E 023°34'0 0.0
2016-Aug-20 02:29N 37°55' E 023°34'0 0.0
2016-Aug-20 01:32N 37°55' E 023°34'0 0.0
2016-Aug-20 00:32N 37°55' E 023°34'0 0.0
2016-Aug-19 23:32N 37°55' E 023°34'0 0.0
2016-Aug-19 22:32N 37°55' E 023°34'0 0.1
2016-Aug-19 21:32N 37°55' E 023°34'0 0.1
2016-Aug-19 20:32N 37°55' E 023°34'0 0.0
2016-Aug-19 19:32N 37°55' E 023°34'0 0.0
2016-Aug-19 18:32N 37°55' E 023°34'0 0.0
2016-Aug-19 17:32N 37°55' E 023°34'0 0.0
2016-Aug-19 16:32N 37°55' E 023°34'2 2.2
2016-Aug-19 15:34N 37°54' E 023°36'8 8.3
2016-Aug-19 14:33N 37°47' E 023°41'8 8.3
2016-Aug-19 13:33N 37°40' E 023°47'167 6.6
2016-Aug-18 12:23N 40°20' E 022°48'7 8.2
2016-Aug-18 11:32N 40°27' E 022°44'8 8.3
2016-Aug-18 10:33N 40°33' E 022°51'6 6.1
2016-Aug-18 09:33N 40°38' E 022°55'0 0.0
2016-Aug-18 08:28N 40°38' E 022°55'0 0.0
2016-Aug-18 07:28N 40°38' E 022°55'0 0.0
2016-Aug-18 06:13N 40°38' E 022°55'0 0.0
2016-Aug-17 09:22N 40°38' E 022°55'0 0.0
2016-Aug-17 08:33N 40°38' E 022°55'0 0.0
2016-Aug-17 07:33N 40°38' E 022°55'0 0.0
2016-Aug-17 06:33N 40°38' E 022°55'0 0.0
2016-Aug-17 04:27N 40°38' E 022°55'1 1.5
2016-Aug-17 03:33N 40°37' E 022°56'0 0.1
2016-Aug-17 02:27N 40°37' E 022°56'0 0.1
2016-Aug-17 01:27N 40°37' E 022°56'0 0.0
2016-Aug-17 00:27N 40°37' E 022°56'0 0.0
2016-Aug-16 23:30N 40°37' E 022°56'0 0.1
2016-Aug-16 22:30N 40°37' E 022°55'0 0.2
2016-Aug-16 21:33N 40°37' E 022°55'  

Dump ship's entire track history